createdAt,value
2022-12-19T00:02:47.546Z,1024.353282956248
2022-12-19T00:16:18.870Z,1024.1515962875656
2022-12-19T00:22:39.766Z,1024.1010968134965
2022-12-19T00:29:00.941Z,1024.0442123916782
2022-12-19T00:35:22.644Z,1023.9606667263075
2022-12-19T00:45:46.832Z,1023.9363573618073
2022-12-19T00:52:09.287Z,1023.8741358766548
2022-12-19T00:58:30.009Z,1023.7959830316179
2022-12-19T01:05:42.743Z,1023.629561236405
2022-12-19T01:12:07.492Z,1023.5524124509615
2022-12-19T01:18:29.661Z,1023.4365686783466
2022-12-19T01:26:33.885Z,1023.3176994854838
2022-12-19T01:44:18.440Z,1023.1395904844343
2022-12-19T01:50:39.594Z,1023.010005332106
2022-12-19T01:57:05.793Z,1022.7957938901073
2022-12-19T02:03:27.823Z,1022.7022116021486
2022-12-19T02:09:50.348Z,1022.6816953977053
2022-12-19T02:16:18.795Z,1022.6379854993055
2022-12-19T02:22:41.836Z,1022.5462443627198
2022-12-19T02:28:59.972Z,1022.4969509011687
2022-12-19T02:35:20.721Z,1022.4615158104101
2022-12-19T02:41:41.293Z,1022.3532077452786
2022-12-19T02:48:04.525Z,1022.2373753094985
2022-12-19T02:54:29.135Z,1022.1623235223885
2022-12-19T03:00:48.912Z,1022.1595062974963
2022-12-19T03:08:41.051Z,1022.2858479368826
2022-12-19T03:15:02.867Z,1022.1809894567431
2022-12-19T03:31:54.778Z,1021.9412714561438
2022-12-19T03:38:16.444Z,1021.7710201566058
2022-12-19T03:47:49.008Z,1021.6785855948026
2022-12-19T04:01:26.084Z,1021.4628761642173
2022-12-19T04:07:46.296Z,1021.4363435114886
2022-12-19T04:14:06.555Z,1021.3699008532337
2022-12-19T04:24:03.969Z,1021.2155426884382
2022-12-19T04:30:23.845Z,1021.1071273813205
2022-12-19T04:36:45.836Z,1021.0043550925786
2022-12-19T04:48:43.937Z,1020.7894143888448
2022-12-19T04:55:04.034Z,1020.6088455994294
2022-12-19T05:01:23.645Z,1020.608282596773
2022-12-19T05:07:45.075Z,1020.4832511413875
2022-12-19T05:16:00.709Z,1020.4143473935538
2022-12-19T05:27:38.298Z,1020.2934153004956
2022-12-19T05:37:25.130Z,1020.2002337775975
2022-12-19T05:44:22.458Z,1020.1702908927612
2022-12-19T05:50:43.327Z,1020.092281173323
2022-12-19T05:57:27.065Z,1019.9860334415713
2022-12-19T06:12:01.893Z,1019.808943354728
2022-12-19T06:35:03.637Z,1019.5984314653538
2022-12-19T06:41:23.615Z,1019.5650270094181
2022-12-19T06:48:32.107Z,1019.4275862755734
2022-12-19T07:02:23.198Z,1019.3599392140335
2022-12-19T07:08:42.782Z,1019.3546943454998
2022-12-19T07:15:02.999Z,1019.358850867169
2022-12-19T07:21:22.125Z,1019.4033487961912
2022-12-19T07:27:40.500Z,1019.4105754341788
2022-12-19T07:33:59.664Z,1019.4564879051142
2022-12-19T07:40:19.390Z,1019.4954448766274
2022-12-19T07:46:38.229Z,1019.4760083699782
2022-12-19T07:56:07.353Z,1019.3569681688417
2022-12-19T08:07:19.194Z,1019.328956780859
2022-12-19T08:15:44.834Z,1019.3367164191228
2022-12-19T08:22:03.784Z,1019.2826517457369
2022-12-19T08:28:24.885Z,1019.2753030697642
2022-12-19T08:37:43.334Z,1019.291363303211
2022-12-19T08:44:04.920Z,1019.2211769546872
2022-12-19T08:50:26.291Z,1019.1763617780358
2022-12-19T09:09:00.691Z,1019.0777156142714
2022-12-19T09:15:21.865Z,1019.0469577750872
2022-12-19T09:21:42.644Z,1019.0436350618564
2022-12-19T09:28:27.445Z,1019.0357929152835
2022-12-19T09:34:54.086Z,1019.0293598263762
2022-12-19T09:41:15.322Z,1018.9297217145285
2022-12-19T09:53:41.491Z,1018.8127714478478
2022-12-19T10:12:46.143Z,1018.692020914025
2022-12-19T10:27:59.227Z,1018.5821017071894
2022-12-19T10:34:21.207Z,1018.4963222910694
2022-12-19T10:40:42.293Z,1018.4688883458555
2022-12-19T10:47:04.494Z,1018.4426842988406
2022-12-19T10:54:33.058Z,1018.3823861581633
2022-12-19T11:00:54.660Z,1018.3406915958417
2022-12-19T11:07:16.163Z,1018.3255362715033
2022-12-19T11:19:37.078Z,1018.2827824545019
2022-12-19T11:35:52.018Z,1018.1086719306845
2022-12-19T11:42:13.424Z,1018.1028929439589
2022-12-19T11:48:36.220Z,1018.0799469883051
2022-12-19T11:54:59.077Z,1018.0280649111606
2022-12-19T12:01:22.556Z,1018.0017793282477
2022-12-19T12:08:56.014Z,1018.008524402115
2022-12-19T12:29:47.074Z,1017.9218101305171
2022-12-19T12:38:23.390Z,1017.7544559502459
2022-12-19T12:44:47.987Z,1017.6665764938135
2022-12-19T12:51:10.318Z,1017.6970194054327
2022-12-19T12:57:33.107Z,1017.6735342411199
2022-12-19T13:08:48.661Z,1017.703603958623
2022-12-19T13:17:41.054Z,1017.6157833333392
2022-12-19T13:24:04.064Z,1017.5400654761326
2022-12-19T13:30:26.440Z,1017.5597091276
2022-12-19T13:39:51.353Z,1017.534546051498
2022-12-19T13:46:31.318Z,1017.5149035931755
2022-12-19T14:15:12.357Z,1017.4630239807043
2022-12-19T14:22:09.800Z,1017.4538643220708
2022-12-19T14:28:36.570Z,1017.395966664316
2022-12-19T14:36:08.557Z,1017.4322897298915
2022-12-19T14:43:57.551Z,1017.446257311055
2022-12-19T14:54:29.349Z,1017.4342725278639
2022-12-19T15:05:56.797Z,1017.2108978690369
2022-12-19T15:14:04.097Z,1017.1850707002245
2022-12-19T15:21:17.035Z,1017.1215351157254
2022-12-19T15:28:59.656Z,1017.0271801900498
2022-12-19T15:41:45.038Z,1016.9874676348037
2022-12-19T15:48:05.703Z,1016.9416875296687
2022-12-19T15:59:12.187Z,1016.8145741757588
2022-12-19T16:11:05.900Z,1016.7091130633777
2022-12-19T16:17:47.241Z,1016.7154147471385
2022-12-19T16:30:00.105Z,1016.7355420699687
2022-12-19T16:36:21.791Z,1016.7222964304774
2022-12-19T16:42:41.684Z,1016.7323777315629
2022-12-19T16:59:42.076Z,1016.7570775879693
2022-12-19T17:11:10.879Z,1016.9718152990474
2022-12-19T17:18:26.606Z,1017.1295964025505
2022-12-19T17:24:51.380Z,1017.1234957027146
2022-12-19T17:31:14.510Z,1016.9349959019404
2022-12-19T17:37:37.162Z,1016.8268742479819
2022-12-19T17:43:59.020Z,1016.6912238381598
2022-12-19T17:54:15.945Z,1016.6041905191645
2022-12-19T18:03:10.948Z,1016.5808101756255
2022-12-19T18:11:09.723Z,1016.6345478972765
2022-12-19T18:17:30.356Z,1016.6982145749673
2022-12-19T18:23:49.399Z,1016.8477232382152
2022-12-19T18:30:08.484Z,1016.7533174690169
2022-12-19T18:40:15.890Z,1016.8914838703972
2022-12-19T18:46:46.724Z,1016.8343193204082
2022-12-19T18:53:12.022Z,1016.7416538090122
2022-12-19T19:05:47.166Z,1016.5664029885594
2022-12-19T19:12:07.870Z,1016.5942564254514
2022-12-19T19:18:28.426Z,1016.7170667679327
2022-12-19T19:24:50.108Z,1016.7070955131009
2022-12-19T19:31:12.318Z,1016.7725625650055
2022-12-19T19:40:17.100Z,1016.7777382626415
2022-12-19T19:50:10.025Z,1016.8721980250425
2022-12-19T20:00:36.252Z,1016.8026802736686
2022-12-19T20:06:57.744Z,1016.7358662990272
2022-12-19T20:13:22.285Z,1016.6737631551223
2022-12-19T20:19:48.032Z,1016.652990611205
2022-12-19T20:26:11.203Z,1016.6501071820934
2022-12-19T20:32:35.979Z,1016.6970718319997
2022-12-19T20:39:01.411Z,1016.7661701422601
2022-12-19T20:45:23.950Z,1016.7018883997457
2022-12-19T20:59:19.367Z,1016.8988265813691
2022-12-19T21:10:57.270Z,1017.086402143073
2022-12-19T21:17:18.305Z,1016.9937947048248
2022-12-19T21:23:38.613Z,1017.0054793439299
2022-12-19T21:30:01.624Z,1016.9481326917678
2022-12-19T21:36:21.594Z,1016.996423313859
2022-12-19T21:42:59.695Z,1016.9668223930844
2022-12-19T21:49:21.378Z,1017.0233435079568
2022-12-19T21:58:19.564Z,1017.1744730774376
2022-12-19T22:04:48.249Z,1017.1372659042272
2022-12-19T22:11:21.119Z,1017.0357260151806
2022-12-19T22:17:48.677Z,1016.9180745343143
2022-12-19T22:24:11.832Z,1016.8600874501133
2022-12-19T22:30:41.075Z,1016.8819662848099
2022-12-19T22:37:06.894Z,1016.8355460253333
2022-12-19T22:43:33.021Z,1016.8161870128374
2022-12-19T22:57:23.935Z,1016.7744914168782
2022-12-19T23:04:56.568Z,1016.7635634238618
2022-12-19T23:14:30.250Z,1016.6966909074761
2022-12-19T23:20:49.556Z,1016.6975878960993
2022-12-19T23:29:42.790Z,1016.6495083452985
2022-12-19T23:36:02.922Z,1016.5974737202665
2022-12-19T23:42:38.124Z,1016.5658566452018
2022-12-19T23:48:57.795Z,1016.5683350303779
2022-12-19T23:55:16.935Z,1016.5267866031694
